sensor_id;sensor_type;location;lat;lon;timestamp;pressure;altitude;pressure_sealevel;temperature;humidity
69035;BME280;56091;55.756;37.412;2023-04-26T00:03:01;97784.91;;;11.83;78.28
69035;BME280;56091;55.756;37.412;2023-04-26T00:08:03;97778.88;;;11.59;79.09
69035;BME280;56091;55.756;37.412;2023-04-26T00:13:07;97775.09;;;11.60;78.97
69035;BME280;56091;55.756;37.412;2023-04-26T00:18:08;97760.44;;;11.33;79.95
69035;BME280;56091;55.756;37.412;2023-04-26T00:23:11;97764.50;;;11.17;81.32
69035;BME280;56091;55.756;37.412;2023-04-26T00:28:12;97769.44;;;11.09;82.12
69035;BME280;56091;55.756;37.412;2023-04-26T00:33:14;97756.06;;;11.04;84.07
69035;BME280;56091;55.756;37.412;2023-04-26T00:38:14;97755.72;;;10.92;83.99
69035;BME280;56091;55.756;37.412;2023-04-26T00:43:15;97678.56;;;10.58;83.97
69035;BME280;56091;55.756;37.412;2023-04-26T00:48:19;97742.56;;;11.04;83.93
69035;BME280;56091;55.756;37.412;2023-04-26T00:53:29;97736.78;;;10.78;83.66
69035;BME280;56091;55.756;37.412;2023-04-26T00:58:30;97717.91;;;10.59;86.29
69035;BME280;56091;55.756;37.412;2023-04-26T01:03:32;97704.94;;;10.61;88.63
69035;BME280;56091;55.756;37.412;2023-04-26T01:08:34;97712.09;;;10.52;90.17
69035;BME280;56091;55.756;37.412;2023-04-26T01:13:37;97716.69;;;10.51;91.56
69035;BME280;56091;55.756;37.412;2023-04-26T01:18:40;97708.66;;;10.46;91.37
69035;BME280;56091;55.756;37.412;2023-04-26T01:23:43;97688.31;;;10.16;91.18
69035;BME280;56091;55.756;37.412;2023-04-26T01:28:44;97707.56;;;10.28;90.47
69035;BME280;56091;55.756;37.412;2023-04-26T01:33:49;97698.41;;;10.24;90.18
69035;BME280;56091;55.756;37.412;2023-04-26T01:38:50;97694.44;;;10.22;91.17
69035;BME280;56091;55.756;37.412;2023-04-26T01:43:50;97672.06;;;10.21;90.95
69035;BME280;56091;55.756;37.412;2023-04-26T01:48:52;97668.06;;;10.19;91.62
69035;BME280;56091;55.756;37.412;2023-04-26T01:53:53;97654.50;;;10.05;91.78
69035;BME280;56091;55.756;37.412;2023-04-26T01:58:54;97643.88;;;9.94;92.02
69035;BME280;56091;55.756;37.412;2023-04-26T02:03:57;97642.22;;;9.99;92.06
69035;BME280;56091;55.756;37.412;2023-04-26T02:09:00;97658.50;;;9.88;92.47
69035;BME280;56091;55.756;37.412;2023-04-26T02:14:01;97641.81;;;9.86;92.57
69035;BME280;56091;55.756;37.412;2023-04-26T02:19:02;97638.41;;;9.81;92.69
69035;BME280;56091;55.756;37.412;2023-04-26T02:24:05;97632.50;;;9.78;93.02
69035;BME280;56091;55.756;37.412;2023-04-26T02:29:05;97622.59;;;9.74;93.43
69035;BME280;56091;55.756;37.412;2023-04-26T02:34:09;97621.41;;;9.61;93.92
69035;BME280;56091;55.756;37.412;2023-04-26T02:39:10;97627.09;;;9.60;94.64
69035;BME280;56091;55.756;37.412;2023-04-26T02:44:12;97611.09;;;9.68;95.50
69035;BME280;56091;55.756;37.412;2023-04-26T02:49:13;97595.38;;;9.56;95.53
69035;BME280;56091;55.756;37.412;2023-04-26T02:54:14;97591.06;;;9.55;96.14
69035;BME280;56091;55.756;37.412;2023-04-26T02:59:16;97600.69;;;9.62;96.67
69035;BME280;56091;55.756;37.412;2023-04-26T03:04:26;97599.31;;;9.64;96.85
69035;BME280;56091;55.756;37.412;2023-04-26T03:09:28;97595.38;;;9.56;96.90
69035;BME280;56091;55.756;37.412;2023-04-26T03:14:29;97588.53;;;9.45;97.56
69035;BME280;56091;55.756;37.412;2023-04-26T03:19:31;97575.84;;;9.46;98.56
69035;BME280;56091;55.756;37.412;2023-04-26T03:24:33;97565.00;;;9.32;98.79
69035;BME280;56091;55.756;37.412;2023-04-26T03:29:33;97575.13;;;9.40;99.01
69035;BME280;56091;55.756;37.412;2023-04-26T03:34:34;97556.94;;;9.32;99.89
69035;BME280;56091;55.756;37.412;2023-04-26T03:39:35;97578.31;;;9.42;100.00
69035;BME280;56091;55.756;37.412;2023-04-26T03:44:36;97564.34;;;9.40;100.00
69035;BME280;56091;55.756;37.412;2023-04-26T03:49:37;97549.19;;;9.25;100.00
69035;BME280;56091;55.756;37.412;2023-04-26T03:54:47;97563.13;;;9.32;100.00
69035;BME280;56091;55.756;37.412;2023-04-26T03:59:48;97555.59;;;9.29;100.00
69035;BME280;56091;55.756;37.412;2023-04-26T04:04:54;97548.97;;;9.22;100.00
69035;BME280;56091;55.756;37.412;2023-04-26T04:09:55;97544.34;;;9.27;100.00
69035;BME280;56091;55.756;37.412;2023-04-26T04:14:57;97555.53;;;9.34;100.00
69035;BME280;56091;55.756;37.412;2023-04-26T04:20:01;97550.16;;;9.34;100.00
69035;BME280;56091;55.756;37.412;2023-04-26T04:25:08;97549.72;;;9.27;100.00
69035;BME280;56091;55.756;37.412;2023-04-26T04:30:14;97542.75;;;9.26;100.00
69035;BME280;56091;55.756;37.412;2023-04-26T04:35:16;97546.63;;;9.39;100.00
69035;BME280;56091;55.756;37.412;2023-04-26T04:40:17;97530.09;;;9.27;100.00
69035;BME280;56091;55.756;37.412;2023-04-26T04:45:21;97526.47;;;9.36;100.00
69035;BME280;56091;55.756;37.412;2023-04-26T04:50:24;97543.06;;;9.44;100.00
69035;BME280;56091;55.756;37.412;2023-04-26T04:55:26;97537.09;;;9.47;100.00
69035;BME280;56091;55.756;37.412;2023-04-26T05:00:27;97542.50;;;9.47;100.00
69035;BME280;56091;55.756;37.412;2023-04-26T05:05:48;97542.13;;;9.53;100.00
69035;BME280;56091;55.756;37.412;2023-04-26T05:10:49;97526.84;;;9.49;100.00
69035;BME280;56091;55.756;37.412;2023-04-26T05:15:50;97512.66;;;9.43;100.00
69035;BME280;56091;55.756;37.412;2023-04-26T05:20:51;97530.41;;;9.63;100.00
69035;BME280;56091;55.756;37.412;2023-04-26T05:25:52;97525.25;;;9.67;100.00
69035;BME280;56091;55.756;37.412;2023-04-26T05:31:15;97539.16;;;9.74;100.00
69035;BME280;56091;55.756;37.412;2023-04-26T05:36:26;97542.69;;;9.69;100.00
69035;BME280;56091;55.756;37.412;2023-04-26T05:41:27;97535.16;;;9.71;100.00
69035;BME280;56091;55.756;37.412;2023-04-26T05:46:28;97530.63;;;9.86;100.00
69035;BME280;56091;55.756;37.412;2023-04-26T05:51:29;97538.84;;;9.94;100.00
69035;BME280;56091;55.756;37.412;2023-04-26T05:56:31;97527.47;;;9.97;100.00
69035;BME280;56091;55.756;37.412;2023-04-26T06:01:32;97517.88;;;9.91;100.00
69035;BME280;56091;55.756;37.412;2023-04-26T06:06:33;97536.66;;;9.96;100.00
69035;BME280;56091;55.756;37.412;2023-04-26T06:11:35;97541.00;;;10.11;100.00
69035;BME280;56091;55.756;37.412;2023-04-26T06:16:36;97544.75;;;10.29;99.10
69035;BME280;56091;55.756;37.412;2023-04-26T06:21:39;97546.28;;;10.35;99.17
69035;BME280;56091;55.756;37.412;2023-04-26T06:26:40;97534.06;;;10.24;98.39
69035;BME280;56091;55.756;37.412;2023-04-26T06:31:42;97542.47;;;10.55;98.63
69035;BME280;56091;55.756;37.412;2023-04-26T06:36:44;97550.06;;;10.53;96.36
69035;BME280;56091;55.756;37.412;2023-04-26T06:41:45;97554.75;;;10.75;95.39
69035;BME280;56091;55.756;37.412;2023-04-26T06:46:55;97551.69;;;10.82;95.06
69035;BME280;56091;55.756;37.412;2023-04-26T06:51:56;97576.03;;;10.77;93.00
69035;BME280;56091;55.756;37.412;2023-04-26T06:56:57;97552.59;;;10.91;92.53
69035;BME280;56091;55.756;37.412;2023-04-26T07:01:58;97571.78;;;10.90;92.19
69035;BME280;56091;55.756;37.412;2023-04-26T07:07:00;97557.38;;;10.94;92.16
69035;BME280;56091;55.756;37.412;2023-04-26T07:12:01;97562.88;;;11.17;91.11
69035;BME280;56091;55.756;37.412;2023-04-26T07:17:04;97574.38;;;11.09;90.44
69035;BME280;56091;55.756;37.412;2023-04-26T07:22:05;97571.09;;;11.26;90.21
69035;BME280;56091;55.756;37.412;2023-04-26T07:27:06;97578.19;;;11.36;89.49
69035;BME280;56091;55.756;37.412;2023-04-26T07:32:08;97580.78;;;11.41;89.61
69035;BME280;56091;55.756;37.412;2023-04-26T07:37:18;97590.66;;;11.45;88.94
69035;BME280;56091;55.756;37.412;2023-04-26T07:42:18;97591.75;;;11.58;88.69
69035;BME280;56091;55.756;37.412;2023-04-26T07:47:19;97596.56;;;11.47;89.52
69035;BME280;56091;55.756;37.412;2023-04-26T07:52:20;97588.56;;;11.56;88.91
69035;BME280;56091;55.756;37.412;2023-04-26T07:57:21;97596.97;;;11.55;87.81
69035;BME280;56091;55.756;37.412;2023-04-26T08:02:22;97581.97;;;11.48;87.88
69035;BME280;56091;55.756;37.412;2023-04-26T08:07:23;97604.16;;;11.73;87.28
69035;BME280;56091;55.756;37.412;2023-04-26T08:12:27;97599.34;;;11.84;88.46
69035;BME280;56091;55.756;37.412;2023-04-26T08:17:28;97622.84;;;11.69;87.64
69035;BME280;56091;55.756;37.412;2023-04-26T08:22:28;97606.38;;;11.43;88.36
69035;BME280;56091;55.756;37.412;2023-04-26T08:27:29;97619.75;;;11.21;91.36
69035;BME280;56091;55.756;37.412;2023-04-26T08:32:31;97617.88;;;11.21;92.45
69035;BME280;56091;55.756;37.412;2023-04-26T08:37:33;97607.78;;;11.27;91.59
69035;BME280;56091;55.756;37.412;2023-04-26T08:42:47;97631.88;;;11.23;90.34
69035;BME280;56091;55.756;37.412;2023-04-26T08:47:49;97626.47;;;11.23;90.61
69035;BME280;56091;55.756;37.412;2023-04-26T08:52:52;97626.66;;;11.13;92.20
69035;BME280;56091;55.756;37.412;2023-04-26T08:57:53;97625.94;;;11.07;92.39
69035;BME280;56091;55.756;37.412;2023-04-26T09:02:55;97623.28;;;11.21;91.61
69035;BME280;56091;55.756;37.412;2023-04-26T09:07:59;97626.69;;;11.27;91.14
69035;BME280;56091;55.756;37.412;2023-04-26T09:13:01;97631.97;;;11.18;94.22
69035;BME280;56091;55.756;37.412;2023-04-26T09:18:16;97635.63;;;10.94;96.62
69035;BME280;56091;55.756;37.412;2023-04-26T09:23:17;97642.34;;;11.25;97.99
69035;BME280;56091;55.756;37.412;2023-04-26T09:28:20;97635.38;;;11.24;96.64
69035;BME280;56091;55.756;37.412;2023-04-26T09:33:21;97638.16;;;11.19;93.56
69035;BME280;56091;55.756;37.412;2023-04-26T09:38:22;97656.28;;;11.46;92.37
69035;BME280;56091;55.756;37.412;2023-04-26T09:43:23;97637.38;;;11.60;89.51
69035;BME280;56091;55.756;37.412;2023-04-26T09:48:25;97653.75;;;11.91;88.90
69035;BME280;56091;55.756;37.412;2023-04-26T09:53:33;97655.97;;;12.25;87.73
69035;BME280;56091;55.756;37.412;2023-04-26T10:03:47;97666.34;;;12.68;83.44
69035;BME280;56091;55.756;37.412;2023-04-26T10:08:48;97665.06;;;12.88;81.51
69035;BME280;56091;55.756;37.412;2023-04-26T10:13:50;97649.09;;;13.32;79.41
69035;BME280;56091;55.756;37.412;2023-04-26T10:18:51;97664.06;;;13.78;77.02
69035;BME280;56091;55.756;37.412;2023-04-26T10:23:52;97672.91;;;14.10;76.53
69035;BME280;56091;55.756;37.412;2023-04-26T10:28:53;97673.06;;;14.14;74.74
69035;BME280;56091;55.756;37.412;2023-04-26T10:34:18;97686.38;;;13.84;77.33
69035;BME280;56091;55.756;37.412;2023-04-26T10:39:22;97681.88;;;13.31;78.42
69035;BME280;56091;55.756;37.412;2023-04-26T10:44:40;97680.91;;;13.04;75.03
69035;BME280;56091;55.756;37.412;2023-04-26T10:49:43;97697.53;;;12.88;76.18
69035;BME280;56091;55.756;37.412;2023-04-26T10:54:58;97716.09;;;12.81;78.13
69035;BME280;56091;55.756;37.412;2023-04-26T11:05:49;97697.63;;;13.28;77.83
69035;BME280;56091;55.756;37.412;2023-04-26T11:16:08;97692.53;;;14.16;74.09
69035;BME280;56091;55.756;37.412;2023-04-26T11:21:09;97701.00;;;14.49;71.39
69035;BME280;56091;55.756;37.412;2023-04-26T11:26:11;97711.72;;;14.45;70.18
69035;BME280;56091;55.756;37.412;2023-04-26T11:31:12;97728.94;;;14.50;69.36
69035;BME280;56091;55.756;37.412;2023-04-26T11:36:14;97729.72;;;14.41;69.99
69035;BME280;56091;55.756;37.412;2023-04-26T11:41:15;97732.47;;;14.68;68.69
69035;BME280;56091;55.756;37.412;2023-04-26T11:46:19;97727.81;;;14.42;69.50
69035;BME280;56091;55.756;37.412;2023-04-26T11:51:20;97736.72;;;14.25;71.48
69035;BME280;56091;55.756;37.412;2023-04-26T11:56:21;97741.28;;;14.07;72.02
69035;BME280;56091;55.756;37.412;2023-04-26T12:01:27;97765.66;;;13.58;74.74
69035;BME280;56091;55.756;37.412;2023-04-26T12:06:40;97779.34;;;13.53;72.53
69035;BME280;56091;55.756;37.412;2023-04-26T12:11:55;97769.69;;;13.38;69.09
69035;BME280;56091;55.756;37.412;2023-04-26T12:17:02;97754.47;;;13.28;67.12
69035;BME280;56091;55.756;37.412;2023-04-26T12:22:04;97760.69;;;13.52;65.02
69035;BME280;56091;55.756;37.412;2023-04-26T12:27:05;97750.81;;;13.56;64.56
69035;BME280;56091;55.756;37.412;2023-04-26T12:32:07;97770.00;;;14.08;63.04
69035;BME280;56091;55.756;37.412;2023-04-26T12:37:08;97757.22;;;14.57;60.34
69035;BME280;56091;55.756;37.412;2023-04-26T12:42:09;97774.69;;;14.34;61.36
69035;BME280;56091;55.756;37.412;2023-04-26T12:47:10;97767.03;;;14.27;62.51
69035;BME280;56091;55.756;37.412;2023-04-26T12:52:10;97766.75;;;14.46;62.23
69035;BME280;56091;55.756;37.412;2023-04-26T12:57:14;97769.03;;;14.79;60.48
69035;BME280;56091;55.756;37.412;2023-04-26T13:02:15;97775.88;;;15.29;60.19
69035;BME280;56091;55.756;37.412;2023-04-26T13:07:16;97780.69;;;15.32;57.70
69035;BME280;56091;55.756;37.412;2023-04-26T13:12:18;97777.59;;;15.42;57.90
69035;BME280;56091;55.756;37.412;2023-04-26T13:17:19;97786.50;;;15.86;55.49
69035;BME280;56091;55.756;37.412;2023-04-26T13:22:23;97790.19;;;15.64;56.29
69035;BME280;56091;55.756;37.412;2023-04-26T13:27:24;97783.69;;;15.39;58.00
69035;BME280;56091;55.756;37.412;2023-04-26T13:32:25;97788.00;;;15.40;58.40
69035;BME280;56091;55.756;37.412;2023-04-26T13:37:26;97785.78;;;15.98;57.04
69035;BME280;56091;55.756;37.412;2023-04-26T13:42:27;97789.50;;;16.53;54.62
69035;BME280;56091;55.756;37.412;2023-04-26T13:47:28;97793.03;;;16.83;54.02
69035;BME280;56091;55.756;37.412;2023-04-26T13:52:28;97782.84;;;17.13;52.43
69035;BME280;56091;55.756;37.412;2023-04-26T13:57:31;97801.03;;;22.57;39.03
69035;BME280;56091;55.756;37.412;2023-04-26T14:02:32;97798.19;;;24.67;33.54
69035;BME280;56091;55.756;37.412;2023-04-26T14:07:33;97810.50;;;26.83;29.06
69035;BME280;56091;55.756;37.412;2023-04-26T14:12:34;97810.56;;;26.62;28.30
69035;BME280;56091;55.756;37.412;2023-04-26T14:17:35;97806.97;;;25.97;28.15
69035;BME280;56091;55.756;37.412;2023-04-26T14:22:35;97806.19;;;24.31;29.40
69035;BME280;56091;55.756;37.412;2023-04-26T14:27:37;97819.94;;;23.49;30.41
69035;BME280;56091;55.756;37.412;2023-04-26T14:32:38;97778.88;;;23.33;29.59
69035;BME280;56091;55.756;37.412;2023-04-26T14:37:41;97841.59;;;23.21;29.92
69035;BME280;56091;55.756;37.412;2023-04-26T14:42:41;97827.38;;;23.15;30.72
69035;BME280;56091;55.756;37.412;2023-04-26T14:47:45;97821.69;;;22.01;32.01
69035;BME280;56091;55.756;37.412;2023-04-26T14:52:46;97797.69;;;20.42;34.87
69035;BME280;56091;55.756;37.412;2023-04-26T14:57:47;97836.19;;;20.65;35.15
69035;BME280;56091;55.756;37.412;2023-04-26T15:02:48;97836.94;;;21.36;34.39
69035;BME280;56091;55.756;37.412;2023-04-26T15:07:49;97855.91;;;21.06;33.70
69035;BME280;56091;55.756;37.412;2023-04-26T15:12:51;97846.88;;;20.06;35.90
69035;BME280;56091;55.756;37.412;2023-04-26T15:17:55;97858.13;;;18.92;38.79
69035;BME280;56091;55.756;37.412;2023-04-26T15:22:57;97837.09;;;18.19;40.42
69035;BME280;56091;55.756;37.412;2023-04-26T15:27:58;97872.34;;;17.78;40.87
69035;BME280;56091;55.756;37.412;2023-04-26T15:32:59;97870.34;;;17.12;42.53
69035;BME280;56091;55.756;37.412;2023-04-26T15:38:00;97875.59;;;16.96;42.50
69035;BME280;56091;55.756;37.412;2023-04-26T15:43:01;97885.06;;;16.60;43.78
69035;BME280;56091;55.756;37.412;2023-04-26T15:48:02;97894.97;;;16.56;43.74
69035;BME280;56091;55.756;37.412;2023-04-26T15:53:03;97894.19;;;16.55;44.27
69035;BME280;56091;55.756;37.412;2023-04-26T15:58:04;97890.84;;;16.50;44.75
69035;BME280;56091;55.756;37.412;2023-04-26T16:03:08;97903.44;;;16.25;44.90
69035;BME280;56091;55.756;37.412;2023-04-26T16:08:11;97905.47;;;15.80;45.76
69035;BME280;56091;55.756;37.412;2023-04-26T16:13:13;97910.09;;;15.62;46.20
69035;BME280;56091;55.756;37.412;2023-04-26T16:18:14;97923.53;;;15.50;46.70
69035;BME280;56091;55.756;37.412;2023-04-26T16:23:16;97863.44;;;14.99;47.32
69035;BME280;56091;55.756;37.412;2023-04-26T16:28:17;97924.81;;;15.35;48.08
69035;BME280;56091;55.756;37.412;2023-04-26T16:33:18;97941.56;;;15.29;47.97
69035;BME280;56091;55.756;37.412;2023-04-26T16:38:19;97939.78;;;15.15;47.98
69035;BME280;56091;55.756;37.412;2023-04-26T16:43:20;97939.44;;;14.99;48.53
69035;BME280;56091;55.756;37.412;2023-04-26T16:48:20;97957.81;;;14.94;47.76
69035;BME280;56091;55.756;37.412;2023-04-26T16:53:21;97964.00;;;14.86;47.85
69035;BME280;56091;55.756;37.412;2023-04-26T16:58:23;97960.78;;;14.75;48.23
69035;BME280;56091;55.756;37.412;2023-04-26T17:03:24;97968.69;;;14.62;48.89
69035;BME280;56091;55.756;37.412;2023-04-26T17:08:25;97979.31;;;14.50;48.93
69035;BME280;56091;55.756;37.412;2023-04-26T17:13:26;97977.50;;;14.37;48.83
69035;BME280;56091;55.756;37.412;2023-04-26T17:18:32;97980.16;;;14.28;49.28
69035;BME280;56091;55.756;37.412;2023-04-26T17:23:33;97961.03;;;14.02;49.82
69035;BME280;56091;55.756;37.412;2023-04-26T17:28:37;97988.63;;;14.04;50.34
69035;BME280;56091;55.756;37.412;2023-04-26T17:33:38;97995.72;;;13.91;51.27
69035;BME280;56091;55.756;37.412;2023-04-26T17:38:41;97998.59;;;13.72;51.81
69035;BME280;56091;55.756;37.412;2023-04-26T17:43:43;98009.97;;;13.60;51.71
69035;BME280;56091;55.756;37.412;2023-04-26T17:48:44;98009.50;;;13.44;52.15
69035;BME280;56091;55.756;37.412;2023-04-26T17:53:48;98026.66;;;13.40;52.41
69035;BME280;56091;55.756;37.412;2023-04-26T17:58:48;98032.06;;;13.26;53.23
69035;BME280;56091;55.756;37.412;2023-04-26T18:03:49;98050.34;;;13.20;53.33
69035;BME280;56091;55.756;37.412;2023-04-26T18:08:50;98060.47;;;13.15;53.78
69035;BME280;56091;55.756;37.412;2023-04-26T18:13:52;98054.72;;;13.02;54.47
69035;BME280;56091;55.756;37.412;2023-04-26T18:18:53;98055.81;;;12.87;54.95
69035;BME280;56091;55.756;37.412;2023-04-26T18:23:54;98059.31;;;12.74;55.46
69035;BME280;56091;55.756;37.412;2023-04-26T18:28:55;98060.31;;;12.64;55.76
69035;BME280;56091;55.756;37.412;2023-04-26T18:33:56;98069.09;;;12.56;56.30
69035;BME280;56091;55.756;37.412;2023-04-26T18:38:57;98075.50;;;12.46;56.83
69035;BME280;56091;55.756;37.412;2023-04-26T18:43:58;98085.16;;;12.34;57.54
69035;BME280;56091;55.756;37.412;2023-04-26T18:48:58;98086.03;;;12.29;57.69
69035;BME280;56091;55.756;37.412;2023-04-26T18:54:00;98063.56;;;12.15;57.65
69035;BME280;56091;55.756;37.412;2023-04-26T18:59:02;98084.72;;;12.26;57.75
69035;BME280;56091;55.756;37.412;2023-04-26T19:04:02;98080.00;;;12.18;58.02
69035;BME280;56091;55.756;37.412;2023-04-26T19:09:04;98086.78;;;12.16;58.46
69035;BME280;56091;55.756;37.412;2023-04-26T19:14:06;98103.91;;;12.11;58.82
69035;BME280;56091;55.756;37.412;2023-04-26T19:19:07;98095.41;;;11.99;58.68
69035;BME280;56091;55.756;37.412;2023-04-26T19:24:08;98120.16;;;12.06;58.47
69035;BME280;56091;55.756;37.412;2023-04-26T19:29:09;98100.91;;;11.94;58.77
69035;BME280;56091;55.756;37.412;2023-04-26T19:34:13;98118.13;;;11.98;59.04
69035;BME280;56091;55.756;37.412;2023-04-26T19:39:14;98117.13;;;11.94;59.24
69035;BME280;56091;55.756;37.412;2023-04-26T19:44:16;98095.19;;;11.76;59.60
69035;BME280;56091;55.756;37.412;2023-04-26T19:49:17;98123.72;;;11.82;59.73
69035;BME280;56091;55.756;37.412;2023-04-26T19:54:17;98126.53;;;11.72;59.88
69035;BME280;56091;55.756;37.412;2023-04-26T19:59:21;98113.69;;;11.64;60.46
69035;BME280;56091;55.756;37.412;2023-04-26T20:04:22;98135.81;;;11.66;60.69
69035;BME280;56091;55.756;37.412;2023-04-26T20:09:23;98132.09;;;11.62;60.76
69035;BME280;56091;55.756;37.412;2023-04-26T20:14:24;98137.50;;;11.62;60.98
69035;BME280;56091;55.756;37.412;2023-04-26T20:19:25;98142.16;;;11.56;61.00
69035;BME280;56091;55.756;37.412;2023-04-26T20:24:26;98154.25;;;11.59;61.18
69035;BME280;56091;55.756;37.412;2023-04-26T20:29:27;98155.88;;;11.60;61.00
69035;BME280;56091;55.756;37.412;2023-04-26T20:34:28;98157.56;;;11.56;61.46
69035;BME280;56091;55.756;37.412;2023-04-26T20:39:29;98168.97;;;11.47;61.44
69035;BME280;56091;55.756;37.412;2023-04-26T20:44:33;98171.16;;;11.45;61.66
69035;BME280;56091;55.756;37.412;2023-04-26T20:49:35;98172.59;;;11.38;61.91
69035;BME280;56091;55.756;37.412;2023-04-26T20:54:36;98172.34;;;11.34;62.46
69035;BME280;56091;55.756;37.412;2023-04-26T20:59:36;98184.59;;;11.26;62.60
69035;BME280;56091;55.756;37.412;2023-04-26T21:04:37;98162.34;;;11.10;62.75
69035;BME280;56091;55.756;37.412;2023-04-26T21:09:40;98191.88;;;11.26;62.60
69035;BME280;56091;55.756;37.412;2023-04-26T21:14:42;98194.59;;;11.26;62.52
69035;BME280;56091;55.756;37.412;2023-04-26T21:19:47;98192.16;;;11.24;62.47
69035;BME280;56091;55.756;37.412;2023-04-26T21:24:51;98200.78;;;11.26;62.44
69035;BME280;56091;55.756;37.412;2023-04-26T21:29:52;98204.31;;;11.27;62.68
69035;BME280;56091;55.756;37.412;2023-04-26T21:34:54;98208.09;;;11.26;62.32
69035;BME280;56091;55.756;37.412;2023-04-26T21:39:55;98195.50;;;11.16;62.47
69035;BME280;56091;55.756;37.412;2023-04-26T21:44:56;98202.72;;;11.21;62.27
69035;BME280;56091;55.756;37.412;2023-04-26T21:49:57;98200.09;;;11.16;62.41
69035;BME280;56091;55.756;37.412;2023-04-26T21:54:57;98209.50;;;11.18;62.19
69035;BME280;56091;55.756;37.412;2023-04-26T21:59:58;98207.09;;;11.17;61.83
69035;BME280;56091;55.756;37.412;2023-04-26T22:05:02;98208.47;;;11.14;62.24
69035;BME280;56091;55.756;37.412;2023-04-26T22:10:04;98223.03;;;11.13;62.05
69035;BME280;56091;55.756;37.412;2023-04-26T22:15:05;98217.41;;;11.09;62.07
69035;BME280;56091;55.756;37.412;2023-04-26T22:20:07;98207.72;;;11.08;61.96
69035;BME280;56091;55.756;37.412;2023-04-26T22:25:08;98201.03;;;11.01;62.29
69035;BME280;56091;55.756;37.412;2023-04-26T22:30:09;98214.28;;;10.97;62.87
69035;BME280;56091;55.756;37.412;2023-04-26T22:35:10;98208.97;;;10.87;63.26
69035;BME280;56091;55.756;37.412;2023-04-26T22:40:12;98210.38;;;10.79;63.47
69035;BME280;56091;55.756;37.412;2023-04-26T22:45:16;98220.91;;;10.75;64.77
69035;BME280;56091;55.756;37.412;2023-04-26T22:50:17;98217.91;;;10.48;66.16
69035;BME280;56091;55.756;37.412;2023-04-26T22:55:18;98232.78;;;10.40;66.67
69035;BME280;56091;55.756;37.412;2023-04-26T23:00:20;98227.97;;;10.27;67.04
69035;BME280;56091;55.756;37.412;2023-04-26T23:05:26;98225.56;;;10.20;67.57
69035;BME280;56091;55.756;37.412;2023-04-26T23:10:27;98248.22;;;10.19;67.75
69035;BME280;56091;55.756;37.412;2023-04-26T23:15:28;98239.63;;;10.07;67.64
69035;BME280;56091;55.756;37.412;2023-04-26T23:20:29;98247.72;;;10.12;67.81
69035;BME280;56091;55.756;37.412;2023-04-26T23:25:30;98240.69;;;10.16;66.74
69035;BME280;56091;55.756;37.412;2023-04-26T23:30:30;98251.44;;;10.21;66.33
69035;BME280;56091;55.756;37.412;2023-04-26T23:35:31;98256.81;;;10.26;66.42
69035;BME280;56091;55.756;37.412;2023-04-26T23:40:32;98251.94;;;10.28;66.11
69035;BME280;56091;55.756;37.412;2023-04-26T23:45:33;98260.59;;;10.30;66.08
69035;BME280;56091;55.756;37.412;2023-04-26T23:50:34;98262.72;;;10.28;65.99
69035;BME280;56091;55.756;37.412;2023-04-26T23:55:35;98266.50;;;10.27;65.76
